Metar z połowy godziny Komunikat METAR ze strony awiacja.imgw.pl Metar G00 EPRZ METAR EPRZ 271430Z 19008KT 9999 OVC013 04/01 Q0997 =